createdAt,value
2022-12-26T00:01:25.669Z,1.56
2022-12-26T00:06:29.211Z,1.57
2022-12-26T00:11:31.415Z,1.78
2022-12-26T00:16:33.905Z,1.64
2022-12-26T00:21:36.205Z,1.72
2022-12-26T00:26:38.493Z,1.66
2022-12-26T00:31:40.278Z,1.50
2022-12-26T00:36:42.194Z,1.55
2022-12-26T00:41:43.956Z,1.54
2022-12-26T00:46:45.670Z,1.41
2022-12-26T00:51:47.488Z,1.52
2022-12-26T00:56:49.169Z,1.56
2022-12-26T01:01:51.179Z,1.46
2022-12-26T01:06:53.084Z,1.50
2022-12-26T01:11:54.757Z,1.58
2022-12-26T01:16:56.525Z,1.47
2022-12-26T01:21:58.216Z,1.60
2022-12-26T01:26:59.961Z,1.49
2022-12-26T01:32:01.703Z,1.47
2022-12-26T01:37:03.465Z,1.41
2022-12-26T01:42:19.475Z,1.36
2022-12-26T01:47:23.711Z,1.27
2022-12-26T01:52:34.273Z,1.46
2022-12-26T01:57:40.686Z,1.46
2022-12-26T02:03:02.572Z,1.33
2022-12-26T02:08:17.512Z,1.35
2022-12-26T02:13:20.045Z,1.27
2022-12-26T02:18:21.810Z,1.28
2022-12-26T02:23:23.402Z,1.25
2022-12-26T02:28:43.308Z,1.17
2022-12-26T02:33:53.865Z,1.20
2022-12-26T02:39:44.973Z,1.20
2022-12-26T02:45:16.738Z,1.21
2022-12-26T02:51:03.179Z,1.26
2022-12-26T02:56:37.259Z,1.24
2022-12-26T03:02:03.085Z,1.20
2022-12-26T03:07:33.771Z,1.17
2022-12-26T03:13:06.504Z,0.98
2022-12-26T03:18:11.322Z,1.16
2022-12-26T03:23:16.808Z,1.01
2022-12-26T03:28:18.548Z,1.13
2022-12-26T03:33:57.987Z,1.03
2022-12-26T03:39:47.791Z,1.08
2022-12-26T03:45:16.459Z,1.16
2022-12-26T03:51:06.158Z,1.04
2022-12-26T03:56:37.756Z,1.01
2022-12-26T04:01:58.653Z,1.05
2022-12-26T04:07:56.324Z,1.08
2022-12-26T04:13:22.335Z,0.94
2022-12-26T04:18:53.248Z,0.84
2022-12-26T04:24:15.883Z,0.82
2022-12-26T04:29:36.421Z,0.90
2022-12-26T04:35:26.391Z,0.66
2022-12-26T04:40:53.479Z,0.96
2022-12-26T04:45:56.043Z,0.86
2022-12-26T04:50:57.768Z,0.90
2022-12-26T04:55:59.509Z,1.01
2022-12-26T05:01:21.322Z,0.98
2022-12-26T05:06:42.254Z,0.90
2022-12-26T05:11:47.370Z,0.78
2022-12-26T05:17:07.623Z,0.93
2022-12-26T05:22:29.830Z,0.97
2022-12-26T05:27:59.535Z,0.94
2022-12-26T05:33:20.081Z,0.82
2022-12-26T05:38:21.774Z,0.83
2022-12-26T05:43:23.415Z,0.77
2022-12-26T05:48:25.128Z,0.71
2022-12-26T05:53:27.631Z,0.78
2022-12-26T05:58:29.333Z,0.72
2022-12-26T06:03:31.016Z,0.73
2022-12-26T06:08:33.012Z,0.79
2022-12-26T06:13:35.480Z,0.74
2022-12-26T06:18:37.711Z,0.64
2022-12-26T06:23:40.303Z,0.67
2022-12-26T06:28:43.392Z,0.66
2022-12-26T06:33:45.060Z,0.58
2022-12-26T06:38:49.681Z,0.65
2022-12-26T06:43:52.090Z,0.76
2022-12-26T06:48:54.328Z,0.62
2022-12-26T06:53:56.218Z,0.33
2022-12-26T06:59:01.193Z,0.76
2022-12-26T07:04:04.434Z,0.67
2022-12-26T07:09:14.445Z,0.68
2022-12-26T07:14:17.195Z,0.79
2022-12-26T07:19:18.966Z,0.82
2022-12-26T07:24:22.560Z,0.88
2022-12-26T07:29:24.484Z,0.85
2022-12-26T07:34:31.370Z,0.86
2022-12-26T07:39:33.802Z,0.99
2022-12-26T07:44:35.595Z,0.94
2022-12-26T07:49:37.495Z,1.02
2022-12-26T07:54:42.072Z,0.98
2022-12-26T07:59:43.937Z,1.02
2022-12-26T08:04:46.827Z,0.98
2022-12-26T08:09:48.751Z,1.07
2022-12-26T08:14:51.194Z,1.14
2022-12-26T08:19:53.059Z,1.06
2022-12-26T08:24:54.816Z,1.10
2022-12-26T08:29:57.034Z,1.16
2022-12-26T08:34:58.747Z,1.26
2022-12-26T08:40:00.529Z,1.29
2022-12-26T08:45:02.832Z,1.25
2022-12-26T08:50:04.994Z,1.31
2022-12-26T08:55:07.084Z,1.30
2022-12-26T09:00:09.691Z,1.35
2022-12-26T09:05:11.452Z,1.38
2022-12-26T09:10:13.325Z,1.41
2022-12-26T09:15:15.081Z,1.48
2022-12-26T09:20:17.121Z,1.60
2022-12-26T09:25:21.184Z,1.61
2022-12-26T09:30:23.524Z,1.70
2022-12-26T09:35:25.243Z,1.85
2022-12-26T09:40:32.724Z,1.98
2022-12-26T09:45:52.139Z,1.91
2022-12-26T09:50:54.237Z,2.10
2022-12-26T09:55:57.322Z,2.13
2022-12-26T10:01:14.073Z,2.33
2022-12-26T10:06:21.388Z,2.31
2022-12-26T10:12:12.646Z,2.48
2022-12-26T10:17:50.452Z,2.65
2022-12-26T10:23:12.206Z,2.44
2022-12-26T10:28:40.411Z,2.87
2022-12-26T10:33:56.295Z,3.05
2022-12-26T10:38:59.849Z,3.10
2022-12-26T10:44:01.750Z,3.43
2022-12-26T10:49:03.743Z,3.22
2022-12-26T10:54:18.034Z,3.31
2022-12-26T10:59:44.777Z,3.70
2022-12-26T11:05:32.742Z,3.78
2022-12-26T11:10:35.126Z,3.35
2022-12-26T11:15:49.201Z,3.35
2022-12-26T11:20:51.190Z,3.75
2022-12-26T11:25:56.002Z,3.59
2022-12-26T11:30:59.007Z,3.71
2022-12-26T11:36:12.042Z,3.69
2022-12-26T11:41:44.161Z,4.62
2022-12-26T11:46:51.354Z,4.42
2022-12-26T11:51:59.347Z,3.83
2022-12-26T11:57:16.857Z,4.60
2022-12-26T12:02:28.965Z,4.11
2022-12-26T12:07:55.653Z,5.44
2022-12-26T12:13:29.274Z,4.59
2022-12-26T12:18:43.199Z,4.98
2022-12-26T12:23:57.125Z,4.96
2022-12-26T12:29:16.794Z,4.37
2022-12-26T12:34:55.795Z,4.18
2022-12-26T12:40:19.180Z,4.58
2022-12-26T12:45:30.957Z,4.03
2022-12-26T12:50:45.823Z,4.33
2022-12-26T12:55:47.416Z,4.22
2022-12-26T13:00:56.801Z,4.43
2022-12-26T13:06:08.883Z,4.47
2022-12-26T13:11:16.376Z,4.08
2022-12-26T13:16:32.394Z,4.38
2022-12-26T13:21:40.746Z,4.37
2022-12-26T13:26:47.137Z,4.00
2022-12-26T13:31:48.931Z,4.23
2022-12-26T13:36:59.022Z,4.15
2022-12-26T13:42:34.507Z,4.28
2022-12-26T13:47:38.504Z,4.99
2022-12-26T13:52:40.732Z,4.37
2022-12-26T13:57:45.131Z,4.79
2022-12-26T14:03:19.604Z,4.40
2022-12-26T14:08:43.405Z,3.97
2022-12-26T14:14:15.277Z,4.26
2022-12-26T14:19:54.541Z,4.05
2022-12-26T14:25:19.416Z,3.82
2022-12-26T14:30:52.935Z,3.77
2022-12-26T14:36:16.410Z,3.70
2022-12-26T14:41:38.680Z,3.76
2022-12-26T14:46:40.903Z,3.91
2022-12-26T14:51:42.870Z,3.65
2022-12-26T14:56:44.813Z,3.68
2022-12-26T15:01:59.605Z,3.54
2022-12-26T15:07:07.580Z,3.63
2022-12-26T15:12:34.135Z,3.47
2022-12-26T15:17:54.289Z,3.49
2022-12-26T15:22:58.609Z,3.54
2022-12-26T15:28:32.240Z,3.72
2022-12-26T15:33:47.043Z,3.53
2022-12-26T15:38:57.627Z,3.31
2022-12-26T15:44:05.388Z,3.33
2022-12-26T15:49:22.339Z,3.29
2022-12-26T15:54:39.205Z,3.32
2022-12-26T15:59:47.796Z,3.26
2022-12-26T16:04:54.208Z,3.35
2022-12-26T16:09:57.225Z,3.22
2022-12-26T16:15:25.294Z,3.35
2022-12-26T16:20:51.619Z,3.28
2022-12-26T16:25:55.829Z,3.22
2022-12-26T16:30:58.621Z,3.19
2022-12-26T16:36:01.231Z,3.16
2022-12-26T16:41:18.232Z,3.10
2022-12-26T16:46:24.992Z,3.16
2022-12-26T16:51:39.543Z,3.05
2022-12-26T16:56:41.857Z,2.97
2022-12-26T17:01:49.334Z,2.89
2022-12-26T17:06:59.420Z,2.85
2022-12-26T17:12:03.866Z,2.71
2022-12-26T17:17:23.668Z,2.75
2022-12-26T17:22:34.331Z,2.67
2022-12-26T17:27:36.142Z,2.70
2022-12-26T17:32:44.731Z,2.69
2022-12-26T17:37:50.339Z,2.52
2022-12-26T17:43:05.197Z,2.66
2022-12-26T17:48:07.689Z,2.66
2022-12-26T17:53:31.467Z,2.61
2022-12-26T17:58:34.678Z,2.53
2022-12-26T18:03:36.674Z,2.53
2022-12-26T18:08:40.667Z,2.45
2022-12-26T18:13:43.359Z,2.37
2022-12-26T18:18:46.942Z,2.45
2022-12-26T18:23:48.986Z,2.40
2022-12-26T18:28:58.322Z,2.32
2022-12-26T18:34:00.112Z,2.37
2022-12-26T18:39:02.101Z,2.34
2022-12-26T18:44:05.003Z,2.20
2022-12-26T18:49:06.828Z,2.32
2022-12-26T18:54:08.518Z,2.29
2022-12-26T18:59:11.508Z,2.22
2022-12-26T19:04:17.000Z,2.27
2022-12-26T19:09:18.979Z,2.21
2022-12-26T19:14:22.065Z,2.14
2022-12-26T19:19:26.726Z,2.21
2022-12-26T19:24:28.657Z,2.14
2022-12-26T19:29:30.436Z,2.12
2022-12-26T19:34:32.733Z,2.12
2022-12-26T19:39:34.914Z,2.00
2022-12-26T19:44:36.671Z,2.08
2022-12-26T19:49:38.559Z,2.11
2022-12-26T19:54:40.280Z,2.13
2022-12-26T19:59:42.074Z,2.10
2022-12-26T20:04:44.743Z,2.09
2022-12-26T20:09:46.489Z,2.00
2022-12-26T20:14:49.384Z,1.99
2022-12-26T20:19:52.322Z,1.97
2022-12-26T20:24:54.240Z,1.89
2022-12-26T20:29:56.055Z,2.02
2022-12-26T20:34:57.800Z,2.07
2022-12-26T20:40:01.300Z,2.08
2022-12-26T20:45:03.412Z,2.17
2022-12-26T20:50:05.922Z,2.20
2022-12-26T20:55:08.127Z,2.01
2022-12-26T21:00:10.626Z,2.01
2022-12-26T21:05:12.451Z,1.99
2022-12-26T21:10:14.641Z,2.01
2022-12-26T21:15:16.475Z,1.98
2022-12-26T21:20:18.217Z,1.95
2022-12-26T21:25:20.433Z,1.97
2022-12-26T21:30:22.168Z,1.97
2022-12-26T21:35:23.898Z,2.03
2022-12-26T21:40:27.714Z,1.98
2022-12-26T21:45:29.503Z,1.97
2022-12-26T21:50:31.227Z,1.99
2022-12-26T21:55:36.478Z,1.98
2022-12-26T22:00:38.456Z,1.97
2022-12-26T22:05:41.696Z,1.94
2022-12-26T22:11:04.563Z,1.96
2022-12-26T22:16:09.275Z,2.02
2022-12-26T22:21:16.688Z,2.02
2022-12-26T22:26:20.480Z,1.89
2022-12-26T22:31:25.864Z,1.92
2022-12-26T22:36:28.861Z,1.95
2022-12-26T22:41:30.606Z,1.97
2022-12-26T22:46:32.363Z,2.00
2022-12-26T22:51:34.082Z,1.98
2022-12-26T22:56:35.766Z,2.01
2022-12-26T23:01:37.983Z,1.98
2022-12-26T23:06:41.521Z,1.98
2022-12-26T23:12:03.780Z,2.00
2022-12-26T23:17:08.474Z,2.03
2022-12-26T23:22:10.549Z,2.01
2022-12-26T23:27:30.360Z,2.01
2022-12-26T23:32:32.374Z,2.09
2022-12-26T23:37:34.078Z,2.03
2022-12-26T23:42:36.050Z,2.04
2022-12-26T23:47:39.252Z,2.05
2022-12-26T23:52:41.602Z,2.07
2022-12-26T23:57:43.299Z,2.07
